Time;durP1;ratioP1;P1;durP2;ratioP2;P2;SDS_P1;SDS_P2;PMS_P1;PMS_P2;Temp;Humidity;BMP_temperature;BMP_pressure;BME280_temperature;BME280_humidity;BME280_pressure;Samples;Min_cycle;Max_cycle;Signal;HPM_P1;HPM_P2
2022/02/10 00:06:31;;;;;;;14.50;10.77;;;;;;;4.26;82.77;95995.31;4963226;28;20436;-80
2022/02/10 00:14:50;;;;;;;14.87;10.13;;;;;;;4.20;83.94;95997.31;5024348;28;20792;-80
2022/02/10 00:17:31;;;;;;;12.70;10.03;;;;;;;4.13;83.48;95988.09;5066140;28;20450;-80
2022/02/10 00:20:14;;;;;;;14.03;10.10;;;;;;;4.07;83.55;95991.81;5022851;28;20986;-80
2022/02/10 00:23:01;;;;;;;11.90;10.33;;;;;;;4.09;84.13;95989.16;5065805;28;20492;-80
2022/02/10 00:36:37;;;;;;;11.57;8.80;;;;;;;4.01;83.98;95990.28;4961654;28;20436;-80
2022/02/10 00:39:20;;;;;;;8.87;7.73;;;;;;;3.99;84.62;95988.66;4993110;28;20460;-79
2022/02/10 00:41:50;;;;;;;9.17;7.20;;;;;;;3.99;84.18;95992.09;4993316;28;20466;-79
2022/02/10 00:44:17;;;;;;;10.53;8.30;;;;;;;3.99;84.15;95989.50;4992915;28;20491;-80
2022/02/10 00:46:45;;;;;;;10.00;8.20;;;;;;;4.01;85.22;95989.44;4961246;28;20464;-79
2022/02/10 00:49:12;;;;;;;11.37;8.20;;;;;;;4.07;84.45;95989.22;4992929;28;20454;-81
2022/02/10 00:51:39;;;;;;;8.30;7.40;;;;;;;4.12;84.59;96000.25;4993354;28;20559;-80
2022/02/10 00:54:06;;;;;;;9.90;7.20;;;;;;;4.16;84.97;95991.41;4992955;28;20481;-80
2022/02/10 00:56:33;;;;;;;9.73;8.20;;;;;;;4.16;85.20;95991.41;4993217;28;20441;-79
2022/02/10 00:59:10;;;;;;;13.13;8.17;;;;;;;4.19;84.56;95985.25;4992986;28;20463;-81
2022/02/10 01:10:23;;;;;;;9.33;8.07;;;;;;;4.24;84.53;95981.53;5053856;28;20430;-80
2022/02/10 01:12:45;;;;;;;12.10;8.70;;;;;;;4.20;85.27;95986.94;5094610;28;20999;-80
2022/02/10 01:31:41;;;;;;;8.70;7.80;;;;;;;4.15;83.35;95976.75;5094455;28;20520;-81
2022/02/10 01:34:08;;;;;;;14.07;12.63;;;;;;;4.15;83.22;95979.34;5094043;28;20490;-82
2022/02/10 01:36:36;;;;;;;11.83;9.90;;;;;;;4.09;84.04;95974.41;5094345;28;20476;-80
2022/02/10 01:39:05;;;;;;;11.40;10.13;;;;;;;4.03;84.02;95980.69;5094008;28;20453;-79
2022/02/10 01:58:10;;;;;;;9.13;8.20;;;;;;;3.67;85.51;95975.25;5051058;28;20467;-81
2022/02/10 02:03:26;;;;;;;9.87;7.00;;;;;;;3.64;86.25;95975.38;5050866;28;20882;-81
2022/02/10 02:06:00;;;;;;;8.30;6.50;;;;;;;3.66;86.08;95976.16;5051174;28;20453;-79
2022/02/10 02:08:31;;;;;;;11.03;8.10;;;;;;;3.68;85.43;95968.31;5050770;28;20442;-80
2022/02/10 02:11:00;;;;;;;7.47;6.67;;;;;;;3.66;85.31;95965.78;5051245;28;20449;-80
2022/02/10 02:13:27;;;;;;;7.97;6.87;;;;;;;3.69;85.13;95963.06;5050899;28;20528;-79
2022/02/10 02:15:54;;;;;;;10.77;7.53;;;;;;;3.73;85.54;95966.38;5050877;28;20473;-81
2022/02/10 02:18:21;;;;;;;7.10;6.40;;;;;;;3.70;85.40;95951.75;5050854;28;20461;-81
2022/02/10 02:20:50;;;;;;;6.77;6.10;;;;;;;3.72;84.82;95957.75;5060079;28;20971;-79
2022/02/10 02:23:20;;;;;;;7.57;6.33;;;;;;;3.74;84.29;95957.69;5093016;28;20488;-81
2022/02/10 02:25:51;;;;;;;9.03;6.67;;;;;;;3.73;84.61;95961.19;5093033;28;20955;-80
2022/02/10 02:28:18;;;;;;;8.10;7.17;;;;;;;3.71;84.33;95957.81;5093182;28;20433;-79
2022/02/10 02:30:49;;;;;;;7.77;6.40;;;;;;;3.72;84.46;95957.75;5093058;28;20468;-80
2022/02/10 02:39:00;;;;;;;8.83;6.50;;;;;;;3.71;84.49;95963.84;5050321;28;20500;-79
2022/02/10 03:06:29;;;;;;;11.60;6.70;;;;;;;3.48;84.73;95961.34;4933213;29;20536;-80
2022/02/10 03:08:59;;;;;;;7.57;6.27;;;;;;;3.47;84.68;95964.84;4932691;29;20494;-81
2022/02/10 03:11:28;;;;;;;8.93;6.80;;;;;;;3.46;83.71;95960.53;4933092;29;20482;-80
2022/02/10 03:13:59;;;;;;;6.03;5.47;;;;;;;3.41;84.60;95955.53;4932907;29;20503;-80
2022/02/10 03:16:56;;;;;;;7.87;6.43;;;;;;;3.43;83.78;95958.06;4959152;28;20456;-80
2022/02/10 03:19:39;;;;;;;8.53;6.10;;;;;;;3.47;83.93;95964.84;4971186;28;20827;-80
2022/02/10 03:22:22;;;;;;;7.00;5.23;;;;;;;3.46;84.27;95957.94;4970852;28;20580;-80
2022/02/10 04:00:57;;;;;;;19.17;14.20;;;;;;;2.76;87.28;95965.84;5049397;28;20998;-80
2022/02/10 04:06:51;;;;;;;37.07;21.33;;;;;;;2.67;86.80;95959.28;4990019;28;20927;-80
2022/02/10 04:15:08;;;;;;;40.37;25.20;;;;;;;2.74;86.62;95962.47;5089871;28;20436;-80
2022/02/10 04:17:52;;;;;;;34.40;22.70;;;;;;;2.66;86.93;95957.59;5090063;28;20487;-79
2022/02/10 04:20:42;;;;;;;30.93;18.97;;;;;;;2.68;86.54;95957.53;5089817;28;20958;-80
2022/02/10 04:23:20;;;;;;;20.90;15.97;;;;;;;2.69;86.34;95957.47;5089549;28;20967;-80
2022/02/10 04:25:58;;;;;;;14.27;10.63;;;;;;;2.73;86.74;95960.78;5089652;28;20523;-80
2022/02/10 04:28:42;;;;;;;11.37;8.13;;;;;;;2.74;86.55;95962.47;5089474;28;20204;-80
2022/02/10 04:56:11;;;;;;;17.60;12.40;;;;;;;2.91;84.09;95974.81;5046912;28;20456;-80
2022/02/10 04:58:55;;;;;;;13.77;9.30;;;;;;;2.75;85.00;95966.75;5046516;28;20655;-81
2022/02/10 05:01:38;;;;;;;17.70;11.07;;;;;;;2.79;84.52;95968.31;5046590;28;20870;-80
2022/02/10 05:04:32;;;;;;;14.17;10.97;;;;;;;2.75;84.50;95980.56;5046512;28;20605;-81
2022/02/10 05:13:33;;;;;;;19.20;14.95;;;;;;;2.70;85.13;95976.44;5046532;28;20512;-79
2022/02/10 05:21:24;;;;;;;26.97;19.00;;;;;;;2.67;85.38;95976.56;5088281;28;20488;-80
2022/02/10 05:24:13;;;;;;;24.10;18.70;;;;;;;2.75;84.69;95980.56;5074935;28;20451;-79
2022/02/10 05:32:28;;;;;;;24.20;17.90;;;;;;;2.70;85.35;95986.81;5074778;28;20487;-79
2022/02/10 05:35:04;;;;;;;19.33;14.33;;;;;;;2.69;86.20;95979.94;5074700;28;20448;-79
2022/02/10 05:37:34;;;;;;;16.60;13.10;;;;;;;2.67;85.53;95989.53;5076086;28;21105;-80
2022/02/10 05:40:06;;;;;;;20.10;14.40;;;;;;;2.62;85.74;95987.09;5076258;28;20444;-80
2022/02/10 05:54:55;;;;;;;42.43;26.50;;;;;;;3.19;84.57;96010.94;5013885;28;20431;-80
2022/02/10 06:00:58;;;;;;;50.23;30.70;;;;;;;4.35;81.16;96027.88;5012786;28;21024;-78
2022/02/10 06:53:57;;;;;;;35.60;26.30;;;;;;;8.24;65.54;96031.94;4993245;28;20444;-79
2022/02/10 07:05:01;;;;;;;40.33;29.07;;;;;;;7.29;69.12;96023.31;4954297;29;20590;-79
2022/02/10 07:07:54;;;;;;;39.17;24.80;;;;;;;7.22;69.78;96033.19;4954480;29;20469;-78
2022/02/10 07:44:39;;;;;;;34.70;22.63;;;;;;;9.37;64.34;96010.34;5053595;28;20444;-81
2022/02/10 07:49:44;;;;;;;25.10;18.53;;;;;;;8.43;67.39;96019.53;5033147;28;20975;-82
2022/02/10 07:55:19;;;;;;;34.70;23.23;;;;;;;7.92;70.48;96012.84;4992050;28;20428;-81
2022/02/10 07:58:02;;;;;;;31.67;21.50;;;;;;;7.01;73.87;96016.94;4992378;28;20779;-85
2022/02/10 08:00:57;;;;;;;31.93;22.80;;;;;;;7.00;74.64;96015.25;4964800;28;20444;-83
2022/02/10 08:55:07;;;;;;;25.73;19.33;;;;;;;6.74;80.76;95995.75;4913882;29;20514;-80
2022/02/10 08:57:52;;;;;;;28.80;19.20;;;;;;;6.84;80.58;96003.91;4887982;29;20462;-82
2022/02/10 09:03:17;;;;;;;29.03;18.57;;;;;;;7.14;79.75;95996.25;4917154;29;20435;-81
2022/02/10 09:05:56;;;;;;;25.43;16.77;;;;;;;7.13;79.24;96002.38;4917007;29;21021;-80
2022/02/10 10:00:40;;;;;;;25.73;15.43;;;;;;;8.09;79.63;95968.28;4878433;29;20934;-80
2022/02/10 10:03:16;;;;;;;22.90;16.90;;;;;;;8.19;79.68;95958.16;4884391;28;20442;-81
2022/02/10 10:05:56;;;;;;;34.00;20.40;;;;;;;8.22;78.81;95960.59;4973415;28;20449;-79
2022/02/10 10:08:37;;;;;;;27.27;18.57;;;;;;;8.08;79.07;95959.59;4973443;28;20449;-83
2022/02/10 10:14:13;;;;;;;24.70;16.93;;;;;;;8.37;78.70;95954.47;4916016;29;20425;-82
2022/02/10 10:16:52;;;;;;;19.17;14.80;;;;;;;8.40;78.40;95950.84;4915755;29;20947;-82
2022/02/10 10:19:44;;;;;;;27.23;16.73;;;;;;;8.46;78.01;95950.50;4915551;29;20452;-81
2022/02/10 10:22:23;;;;;;;21.97;16.40;;;;;;;8.39;77.24;95944.78;4915633;29;20955;-81
2022/02/10 10:25:35;;;;;;;25.13;16.90;;;;;;;8.31;77.95;95939.13;4915523;29;20540;-82
2022/02/10 10:51:01;;;;;;;29.30;18.07;;;;;;;8.63;79.01;95890.97;4966136;28;20436;-81
2022/02/10 10:53:37;;;;;;;25.40;18.13;;;;;;;8.77;78.54;95894.53;4972611;28;20453;-82
2022/02/10 10:56:09;;;;;;;27.23;18.37;;;;;;;8.93;78.99;95890.84;4972727;28;20453;-82
2022/02/10 10:58:42;;;;;;;26.43;17.53;;;;;;;9.09;78.07;95885.50;4972532;28;20449;-81
2022/02/10 11:38:14;;;;;;;31.40;21.70;;;;;;;9.48;75.21;95836.75;5011089;28;20945;-80
2022/02/10 14:11:53;;;;;;;37.80;26.47;;;;;;;10.95;70.21;95720.75;4935747;29;20535;-80
2022/02/10 14:14:16;;;;;;;37.23;22.70;;;;;;;10.81;71.00;95718.28;4957590;28;20473;-82
2022/02/10 14:16:50;;;;;;;42.47;27.07;;;;;;;10.92;71.89;95720.97;4974473;28;20926;-83
2022/02/10 14:19:27;;;;;;;46.63;23.40;;;;;;;10.91;70.79;95721.91;4974318;28;20481;-82
2022/02/10 14:22:05;;;;;;;43.30;23.90;;;;;;;10.86;71.65;95721.41;4974400;28;20426;-82
2022/02/10 14:35:06;;;;;;;35.70;23.80;;;;;;;10.52;73.91;95702.03;5045817;28;20975;-84
2022/02/10 14:37:49;;;;;;;40.97;26.20;;;;;;;10.49;73.00;95697.84;5055584;28;20430;-84
2022/02/10 14:40:31;;;;;;;41.53;25.97;;;;;;;10.53;73.78;95696.66;5055031;28;20453;-82
2022/02/10 14:43:26;;;;;;;52.23;25.47;;;;;;;10.54;73.25;95697.50;5054864;28;20489;-83
2022/02/10 15:29:58;;;;;;;34.83;23.80;;;;;;;11.18;71.49;95677.88;4954358;29;20430;-81
2022/02/10 15:51:24;;;;;;;56.20;32.70;;;;;;;10.24;72.79;95659.38;4969426;28;20528;-80
2022/02/10 16:18:46;;;;;;;72.87;43.40;;;;;;;8.99;74.24;95672.38;4972156;28;20954;-82
2022/02/10 16:21:18;;;;;;;57.67;37.67;;;;;;;8.89;74.19;95672.13;4972378;28;20433;-81
2022/02/10 16:23:47;;;;;;;65.57;38.40;;;;;;;8.74;74.32;95654.00;4972605;28;20451;-82
2022/02/10 16:26:16;;;;;;;76.33;39.03;;;;;;;8.75;74.40;95671.38;4925444;28;20512;-84
2022/02/10 16:28:45;;;;;;;87.87;49.20;;;;;;;8.68;74.54;95669.16;4956587;28;20460;-81
2022/02/10 16:31:14;;;;;;;116.50;56.90;;;;;;;8.65;74.10;95671.94;4924872;28;21170;-81
2022/02/10 16:33:43;;;;;;;83.87;44.60;;;;;;;8.58;74.53;95669.84;4971533;28;20482;-80
2022/02/10 16:36:16;;;;;;;52.47;32.93;;;;;;;8.52;74.66;95673.69;5053238;28;20434;-81
2022/02/10 16:38:44;;;;;;;60.90;37.23;;;;;;;8.49;74.97;95671.28;5054134;28;20517;-80
2022/02/10 16:41:11;;;;;;;43.97;29.87;;;;;;;8.44;77.97;95672.50;5059113;28;20978;-80
2022/02/10 16:43:38;;;;;;;46.03;27.73;;;;;;;8.45;78.58;95668.97;5053463;28;20475;-81
2022/02/10 16:46:13;;;;;;;42.80;30.10;;;;;;;8.46;78.20;95673.25;5053272;28;20476;-81
2022/02/10 16:48:40;;;;;;;51.60;31.33;;;;;;;8.41;78.33;95667.47;5052621;28;20455;-80
2022/02/10 16:51:11;;;;;;;54.03;33.03;;;;;;;8.42;78.17;95672.59;5052755;28;20441;-80
2022/02/10 16:53:42;;;;;;;52.57;33.63;;;;;;;8.37;76.33;95672.03;5053042;28;20539;-82
2022/02/10 16:56:13;;;;;;;46.13;29.47;;;;;;;8.40;75.74;95684.94;5053010;28;20442;-82
2022/02/10 16:58:46;;;;;;;47.67;29.27;;;;;;;8.26;75.67;95677.09;5053455;28;20458;-81
2022/02/10 17:18:23;;;;;;;46.50;26.00;;;;;;;7.83;77.09;95681.53;4933886;29;20463;-80
2022/02/10 17:21:02;;;;;;;38.67;25.83;;;;;;;7.80;76.71;95689.53;4936903;29;20451;-79
2022/02/10 17:26:32;;;;;;;38.33;23.67;;;;;;;7.61;76.96;95688.06;4936810;29;20550;-80
2022/02/10 17:29:14;;;;;;;43.07;23.87;;;;;;;7.45;77.12;95676.84;4936861;29;20436;-81
2022/02/10 17:32:06;;;;;;;32.10;22.80;;;;;;;7.45;76.93;95680.28;4936424;29;20462;-81
2022/02/10 17:35:03;;;;;;;37.97;23.47;;;;;;;7.47;77.29;95698.47;4936460;29;20451;-82
2022/02/10 17:41:27;;;;;;;29.20;21.47;;;;;;;7.38;77.15;95697.25;4913038;29;20454;-80
2022/02/10 17:46:02;;;;;;;24.30;16.50;;;;;;;7.28;78.35;95690.09;5055681;28;20493;-81
2022/02/10 17:51:45;;;;;;;23.50;17.30;;;;;;;7.33;77.33;95694.09;5055480;28;20417;-80
2022/02/10 17:54:13;;;;;;;26.20;16.03;;;;;;;7.34;78.00;95694.94;5055969;28;20856;-81
2022/02/10 17:56:40;;;;;;;24.40;16.40;;;;;;;7.36;78.92;95683.47;5055586;28;20784;-81
2022/02/10 17:59:08;;;;;;;22.57;15.33;;;;;;;7.39;77.62;95688.50;5055775;28;20448;-81
2022/02/10 18:01:36;;;;;;;21.03;15.33;;;;;;;7.42;77.55;95682.25;5055789;28;20426;-81
2022/02/10 18:04:03;;;;;;;23.00;16.00;;;;;;;7.45;76.30;95685.53;5055701;28;20426;-80
2022/02/10 18:06:36;;;;;;;26.43;16.90;;;;;;;7.45;76.55;95687.28;5055912;28;20959;-82
2022/02/10 18:14:34;;;;;;;24.43;18.13;;;;;;;7.54;75.14;95691.16;5033469;28;20194;-83
2022/02/10 18:17:09;;;;;;;34.50;21.87;;;;;;;7.52;74.99;95685.16;5034093;28;20891;-81
2022/02/10 18:19:41;;;;;;;111.20;56.67;;;;;;;7.55;74.69;95679.75;5033229;28;20473;-83
2022/02/10 18:22:32;;;;;;;68.77;35.73;;;;;;;7.49;74.10;95683.56;5033239;28;20454;-82
2022/02/10 19:01:34;;;;;;;22.47;15.57;;;;;;;7.43;73.48;95710.88;4935648;29;20431;-83
2022/02/10 19:09:00;;;;;;;27.63;14.33;;;;;;;7.10;75.03;95721.53;4895284;29;20457;-82
2022/02/10 19:11:27;;;;;;;23.40;13.03;;;;;;;6.99;74.89;95720.47;4896970;29;20485;-79
2022/02/10 19:13:57;;;;;;;20.90;12.27;;;;;;;6.89;75.36;95712.31;4897239;29;21016;-79
2022/02/10 19:16:25;;;;;;;23.73;14.50;;;;;;;6.81;74.81;95719.75;4897199;29;20464;-79
2022/02/10 19:18:53;;;;;;;19.60;11.90;;;;;;;6.80;75.16;95715.47;4896977;29;20496;-77
2022/02/10 19:21:19;;;;;;;24.87;13.20;;;;;;;6.73;75.55;95701.94;4897125;29;20484;-81
2022/02/10 19:23:46;;;;;;;22.57;12.40;;;;;;;6.79;76.00;95719.84;4897022;29;20814;-80
2022/02/10 19:26:14;;;;;;;20.90;12.77;;;;;;;6.79;76.29;95725.06;4897147;29;20480;-82
2022/02/10 19:48:52;;;;;;;12.30;9.60;;;;;;;6.61;76.26;95740.88;5053572;28;20428;-78
2022/02/10 19:51:19;;;;;;;15.17;9.97;;;;;;;6.61;76.26;95733.91;5053802;28;20496;-78
2022/02/10 19:53:47;;;;;;;20.70;11.47;;;;;;;6.59;76.18;95732.31;5053324;28;20516;-80
2022/02/10 19:56:15;;;;;;;12.80;10.13;;;;;;;6.49;76.83;95732.00;5053919;28;20785;-79
2022/02/10 19:58:42;;;;;;;14.07;10.67;;;;;;;6.56;76.53;95737.69;5053983;28;20492;-80
2022/02/10 20:01:09;;;;;;;15.80;9.23;;;;;;;6.58;76.22;95731.47;5054171;28;20531;-81
2022/02/10 20:03:39;;;;;;;16.50;10.40;;;;;;;6.64;75.69;95732.88;5053473;28;20866;-82
2022/02/10 20:06:08;;;;;;;12.87;8.93;;;;;;;6.65;75.66;95721.53;5053342;28;20445;-84
2022/02/10 20:08:35;;;;;;;15.85;11.27;;;;;;;6.72;74.42;95728.94;5017416;28;20436;-81
2022/02/10 20:11:02;;;;;;;13.10;9.53;;;;;;;6.79;74.20;95735.50;5053603;28;20314;-80
2022/02/10 20:13:31;;;;;;;14.90;10.63;;;;;;;6.81;74.30;95731.03;5053121;28;20492;-81
2022/02/10 20:16:00;;;;;;;18.87;11.50;;;;;;;6.82;73.50;95735.31;5053626;28;20984;-80
2022/02/10 20:18:28;;;;;;;14.80;10.17;;;;;;;6.85;73.78;95739.50;5054293;28;20521;-81
2022/02/10 20:20:55;;;;;;;14.43;9.57;;;;;;;6.81;73.20;95731.03;5053271;28;20794;-82
2022/02/10 20:23:25;;;;;;;24.00;11.43;;;;;;;6.75;73.79;95733.16;5018876;28;20453;-82
2022/02/10 20:25:52;;;;;;;17.23;11.03;;;;;;;6.77;73.75;95747.78;5035142;28;20584;-81
2022/02/10 20:28:22;;;;;;;19.57;10.70;;;;;;;6.73;73.47;95740.22;5053385;28;20438;-79
2022/02/10 20:30:50;;;;;;;15.50;11.30;;;;;;;6.66;73.52;95734.50;5053255;28;20438;-80
2022/02/10 20:36:41;;;;;;;14.37;12.47;;;;;;;6.56;73.93;95735.94;5053129;28;20950;-81
2022/02/10 20:39:16;;;;;;;23.67;14.30;;;;;;;6.49;74.24;95734.59;5053194;28;20440;-81
2022/02/10 20:41:49;;;;;;;16.17;12.30;;;;;;;6.48;74.77;95719.88;5054014;28;20438;-81
2022/02/10 20:44:16;;;;;;;19.03;13.07;;;;;;;6.46;74.73;95721.72;5053005;28;20904;-83
2022/02/10 20:46:44;;;;;;;23.70;12.63;;;;;;;6.35;75.55;95711.03;5053083;28;20452;-85
2022/02/10 20:49:16;;;;;;;15.90;12.73;;;;;;;6.31;75.68;95719.94;5034572;28;20436;-82
2022/02/10 20:51:43;;;;;;;17.40;11.73;;;;;;;6.16;75.77;95709.47;5052901;28;20436;-79
2022/02/10 20:54:12;;;;;;;13.87;10.20;;;;;;;6.13;76.13;95703.56;5037116;28;20481;-79
2022/02/10 20:56:39;;;;;;;13.40;9.57;;;;;;;6.13;77.10;95701.81;5056738;28;20939;-80
2022/02/10 20:59:18;;;;;;;11.88;9.43;;;;;;;6.16;75.86;95695.59;5056608;28;20436;-81
2022/02/10 21:01:45;;;;;;;19.80;11.30;;;;;;;6.24;76.43;95690.78;5056968;28;20187;-82
2022/02/10 21:04:21;;;;;;;18.10;11.40;;;;;;;6.25;74.85;95682.03;5056673;28;20499;-80
2022/02/10 21:06:56;;;;;;;19.37;10.93;;;;;;;6.29;74.47;95680.09;5057314;28;20837;-83
2022/02/10 21:09:35;;;;;;;14.83;11.00;;;;;;;6.28;74.45;95684.47;5056464;28;20916;-79
2022/02/10 21:12:04;;;;;;;14.80;10.20;;;;;;;6.30;74.65;95681.78;5055619;28;21198;-79
2022/02/10 21:14:32;;;;;;;15.33;10.60;;;;;;;6.30;74.62;95673.97;5055259;28;20485;-78
2022/02/10 21:17:05;;;;;;;12.70;10.47;;;;;;;6.25;74.50;95669.00;5055613;28;20460;-78
2022/02/10 21:19:33;;;;;;;16.60;11.30;;;;;;;6.20;74.46;95681.47;5055173;28;20947;-80
2022/02/10 21:22:05;;;;;;;16.10;11.80;;;;;;;6.20;74.38;95684.06;5020423;28;20851;-79
2022/02/10 21:24:38;;;;;;;15.53;11.80;;;;;;;6.16;74.44;95686.00;5055075;28;20445;-79
2022/02/10 21:27:25;;;;;;;17.83;12.37;;;;;;;6.13;74.31;95675.75;5055324;28;20869;-79
2022/02/10 21:29:56;;;;;;;18.43;13.10;;;;;;;6.22;74.85;95683.06;5054943;28;20481;-80
2022/02/10 21:32:25;;;;;;;21.70;13.77;;;;;;;6.21;74.62;95683.97;5055073;28;20433;-80
2022/02/10 21:35:08;;;;;;;20.97;16.07;;;;;;;6.18;74.81;95665.91;5054994;28;20511;-79
2022/02/10 21:37:43;;;;;;;18.50;13.23;;;;;;;6.27;74.23;95677.59;5036360;28;20440;-80
2022/02/10 21:40:27;;;;;;;24.33;15.57;;;;;;;6.31;74.17;95670.44;5055223;28;20433;-79
2022/02/10 21:52:32;;;;;;;28.53;14.70;;;;;;;6.23;74.34;95657.84;5054900;28;20449;-79
2022/02/10 21:57:27;;;;;;;18.30;13.50;;;;;;;6.07;75.15;95657.84;5054300;28;20426;-81
2022/02/10 22:11:09;;;;;;;21.43;12.47;;;;;;;5.73;75.81;95639.72;4934828;29;20485;-79
2022/02/10 22:19:12;;;;;;;18.20;12.43;;;;;;;5.73;76.10;95634.50;4934786;29;20442;-80
2022/02/10 22:21:46;;;;;;;21.77;13.07;;;;;;;5.79;75.32;95648.06;4934446;29;20977;-80
2022/02/10 22:24:15;;;;;;;16.50;12.70;;;;;;;5.77;75.95;95641.22;4934649;29;20792;-81
2022/02/10 22:26:42;;;;;;;20.40;14.20;;;;;;;5.77;75.37;95644.69;4934440;29;20458;-80
2022/02/10 22:29:15;;;;;;;18.13;13.80;;;;;;;5.70;75.55;95651.13;4934636;29;20834;-80
2022/02/10 22:32:03;;;;;;;18.40;14.30;;;;;;;5.71;74.96;95638.97;4934527;29;20832;-81
2022/02/10 22:34:35;;;;;;;18.77;12.97;;;;;;;5.61;75.64;95643.84;4934376;29;20910;-80
2022/02/10 22:37:06;;;;;;;18.93;12.13;;;;;;;5.62;76.05;95644.66;4934378;29;20458;-80
2022/02/10 22:39:38;;;;;;;20.07;14.17;;;;;;;5.61;76.14;95646.44;4955751;28;20451;-79
2022/02/10 22:42:06;;;;;;;39.50;23.27;;;;;;;5.55;75.97;95654.56;4992227;28;21022;-79
2022/02/10 22:44:34;;;;;;;39.13;24.00;;;;;;;5.55;75.15;95652.81;5005207;28;20488;-80
2022/02/10 22:47:02;;;;;;;40.70;24.50;;;;;;;5.45;75.58;95643.78;5053654;28;20487;-78
2022/02/10 22:49:29;;;;;;;43.03;23.33;;;;;;;5.43;75.76;95650.00;5053585;28;20445;-78
2022/02/10 22:51:57;;;;;;;23.37;16.77;;;;;;;5.35;75.16;95642.59;5054072;28;20450;-80
2022/02/10 22:54:24;;;;;;;33.93;15.77;;;;;;;5.33;75.84;95639.25;5053669;28;20494;-78
2022/02/10 22:56:51;;;;;;;24.10;14.67;;;;;;;5.28;75.84;95642.09;5053506;28;20932;-80
2022/02/10 22:59:19;;;;;;;19.73;12.33;;;;;;;5.19;76.13;95637.34;5053391;28;20445;-79
2022/02/10 23:01:48;;;;;;;19.23;11.90;;;;;;;5.14;76.41;95628.09;5053244;28;20440;-79
2022/02/10 23:04:15;;;;;;;14.20;11.87;;;;;;;5.12;76.60;95629.94;5053273;28;20448;-80
2022/02/10 23:06:42;;;;;;;16.13;11.80;;;;;;;5.13;77.41;95629.84;5053634;28;20512;-79
2022/02/10 23:09:26;;;;;;;16.20;11.37;;;;;;;5.13;76.89;95626.41;5053378;28;20456;-80
2022/02/10 23:11:54;;;;;;;17.40;11.47;;;;;;;5.10;76.80;95621.38;5052962;28;20882;-79
2022/02/10 23:14:21;;;;;;;19.47;11.17;;;;;;;5.10;77.20;95626.56;5052776;28;20480;-80
2022/02/10 23:16:49;;;;;;;14.50;11.23;;;;;;;5.08;76.76;95628.41;5052658;28;20465;-80
2022/02/10 23:19:16;;;;;;;15.27;10.53;;;;;;;5.06;77.17;95620.69;5052840;28;20446;-81
2022/02/10 23:21:44;;;;;;;15.00;10.77;;;;;;;5.05;77.92;95628.56;5053292;28;20445;-80
2022/02/10 23:24:10;;;;;;;12.90;10.53;;;;;;;5.01;78.02;95617.50;5052768;28;20460;-80
2022/02/10 23:26:37;;;;;;;17.37;11.10;;;;;;;4.99;78.11;95614.13;5034135;28;20431;-80
2022/02/10 23:29:04;;;;;;;14.77;10.23;;;;;;;4.93;77.25;95622.25;5053238;28;20544;-80
2022/02/10 23:31:31;;;;;;;14.80;10.53;;;;;;;4.87;77.10;95605.19;5053359;28;20444;-80
2022/02/10 23:34:03;;;;;;;13.33;10.13;;;;;;;4.83;77.39;95608.84;5053006;28;20485;-80
2022/02/10 23:36:48;;;;;;;14.50;11.03;;;;;;;4.75;77.63;95611.00;5052594;28;20517;-79
2022/02/10 23:39:21;;;;;;;18.53;10.60;;;;;;;4.70;77.61;95594.81;5052567;28;20450;-80
2022/02/10 23:44:35;;;;;;;17.10;10.80;;;;;;;4.62;77.73;95594.34;5052497;28;20523;-79
2022/02/10 23:47:04;;;;;;;16.33;10.13;;;;;;;4.66;78.44;95601.09;5052631;28;20447;-79
2022/02/10 23:49:34;;;;;;;12.20;9.60;;;;;;;4.65;79.31;95599.41;5052876;28;20772;-80
2022/02/10 23:52:04;;;;;;;15.00;10.43;;;;;;;4.64;78.65;95608.97;5052434;28;20492;-79
2022/02/10 23:54:33;;;;;;;15.60;11.00;;;;;;;4.66;78.05;95606.28;5052185;28;20479;-80
2022/02/10 23:57:05;;;;;;;13.97;11.90;;;;;;;4.72;77.84;95611.19;5051133;28;20445;-78
